Grand Marais, MN

8:06 AM CST on December 06, 2016 (GMT -0600)
Grand Marais-Cook County | | Change Station
Active Advisory: Winter Weather Advisory Active Notice: Record Report

Elev 1798 ft 47.84 °N, 90.38 °W | Updated 13 minutes ago

Overcast
Overcast
30 °F
Feels Like 22 °F
N
9
Wind Variable Wind from SSE
Gusts 22 mph

Today
High -- | Low -- °F
--% Chance of Precip.
Yesterday
High -- | Low -- °F
Precip. -- in
Pressure 29.53 in
Visibility 1.0 miles
Clouds Overcast 100 ft
Windchill 22 °F
Dew Point 27 °F
Humidity 86%
Rainfall 0.00 in
Snow Depth Not available.
7:36 AM 4:09 PM
Waxing Crescent, 42% visible
METAR KCKC 061353Z AUTO 16008G19KT 119V179 1SM UP OVC001 M01/M03 A2953 RMK AO2
Pressure 29.53 in
Visibility 1.0 miles
Clouds Overcast 100 ft
Windchill 22 °F
Dew Point 27 °F
Humidity 86%
Rainfall 0.00 in
Snow Depth Not available.
7:36 AM 4:09 PM
Waxing Crescent, 42% visible
METAR KCKC 061353Z AUTO 16008G19KT 119V179 1SM UP OVC001 M01/M03 A2953 RMK AO2

10-Day Weather Forecast

Almanac

Astronomy

Dec. 06, 2016 Rise Set
Actual Time
Civil Twilight
Nautical Twilight
Astronomical Twilight
Moon
Length of Visible Light
Length of Day
Tomorrow will be .
, % of the Moon is Illuminated

Today's Extremes

State Highs State Lows

Community

WunderPhotos

Upload Photos

1,955,949 photos uploaded!

WunderBlog® & News

Nearby

Air Quality

  Air Quality AQ Index Pollutant
Not available.

Snow Depth

Station Depth Elevation

Earthquake Activity

City Distance Mag. Time & Date
Minimum magnitude displayed is 2.5.

Coastal Water Temperatures

Place Temperature

Stations

Nearby Weather Stations

Station Location Temp. Windchill Dew Point Humidity Wind Precip. Elev Updated Type
                   

Watches & Warnings

Winter Weather Advisory
Issued: 3:36 AM CST Dec. 6, 2016 – National Weather Service

... Winter Weather Advisory remains in effect until noon CST
today...

* locations... the North Shore of Lake Superior... including
Isabella... Two Harbors... Silver Bay... Lutsen... Hovland and Grand
Marais.

* Timing... this morning.

* Precipitation rates... the heaviest snow will occur from early
this morning through midday.

* Snow accumulations... 3 to 6 inches... mainly along the higher
terrain adjacent to Lake Superior.

* Visibilities... less than a mile at times.

* Impacts... snow will reduce visibilities and cause deteriorating
Road conditions across the North Shore... especially in the
higher terrain.

Precautionary/preparedness actions...

A Winter Weather Advisory for snow means periods of snow will
cause primarily travel difficulties. Be prepared for snow covered
roads and limited visibilities... and use caution while driving.
The latest Road conditions for the state you are calling from can
be obtained by calling 5 1 1.